Time;durP1;ratioP1;P1;durP2;ratioP2;P2;SDS_P1;SDS_P2;PMS_P1;PMS_P2;Temp;Humidity;BMP_temperature;BMP_pressure;BME280_temperature;BME280_humidity;BME280_pressure;Samples;Min_cycle;Max_cycle;Signal;HPM_P1;HPM_P2
2023/11/26 00:02:22;;;;;;;1.10;1.00;;;;;;;3.95;74.87;95741.44;5046522;28;20187;-72
2023/11/26 00:04:47;;;;;;;1.87;1.53;;;;;;;4.08;74.72;95741.91;5045595;28;20505;-72
2023/11/26 00:07:12;;;;;;;3.00;1.07;;;;;;;4.03;74.91;95745.50;5040843;28;20182;-72
2023/11/26 00:09:38;;;;;;;1.30;0.93;;;;;;;3.90;75.55;95759.75;5058032;28;20178;-71
2023/11/26 00:12:09;;;;;;;1.30;1.10;;;;;;;4.08;74.43;95758.34;5048289;28;20182;-72
2023/11/26 00:14:38;;;;;;;1.53;0.97;;;;;;;4.08;75.31;95763.53;5048802;28;20302;-70
2023/11/26 00:17:05;;;;;;;1.93;1.30;;;;;;;4.16;74.77;95759.00;5041816;28;20414;-71
2023/11/26 00:19:32;;;;;;;1.73;1.60;;;;;;;4.19;75.05;95766.69;5049200;28;20424;-72
2023/11/26 00:21:58;;;;;;;1.93;1.43;;;;;;;4.21;74.42;95762.31;5054293;28;20798;-72
2023/11/26 00:24:23;;;;;;;8.27;1.80;;;;;;;4.24;74.11;95761.34;5034718;28;20440;-71
2023/11/26 00:26:49;;;;;;;5.80;2.07;;;;;;;4.18;74.01;95761.53;5048534;28;20191;-72
2023/11/26 00:29:14;;;;;;;6.77;2.00;;;;;;;4.22;73.43;95768.34;5048923;28;20642;-71
2023/11/26 00:31:40;;;;;;;6.17;2.73;;;;;;;4.22;72.53;95765.75;5049085;28;20183;-73
2023/11/26 00:34:07;;;;;;;2.27;1.97;;;;;;;4.29;72.49;95772.47;5043571;28;20272;-72
2023/11/26 00:36:32;;;;;;;10.13;2.77;;;;;;;4.35;72.18;95771.44;5048034;28;20608;-72
2023/11/26 00:38:58;;;;;;;4.10;1.93;;;;;;;4.29;71.68;95767.25;5048488;28;20506;-72
2023/11/26 00:41:24;;;;;;;2.97;2.50;;;;;;;4.16;71.19;95771.13;5048770;28;20186;-71
2023/11/26 00:43:50;;;;;;;2.03;1.83;;;;;;;4.19;71.26;95773.63;5048223;28;20658;-70
2023/11/26 00:46:15;;;;;;;6.37;1.93;;;;;;;4.05;71.86;95779.22;5048458;28;20467;-71
2023/11/26 00:48:41;;;;;;;2.90;2.20;;;;;;;3.99;72.08;95781.97;5047107;28;20525;-71
2023/11/26 00:51:06;;;;;;;2.33;2.00;;;;;;;3.97;72.15;95786.38;5049495;28;20189;-71
2023/11/26 00:53:32;;;;;;;2.57;2.00;;;;;;;4.00;72.14;95786.28;5046018;28;20237;-72
2023/11/26 00:55:58;;;;;;;2.40;2.20;;;;;;;3.87;72.22;95790.09;5045407;28;20274;-71
2023/11/26 00:58:23;;;;;;;4.73;2.30;;;;;;;4.03;71.70;95793.97;5037515;28;20202;-70
2023/11/26 01:00:49;;;;;;;2.77;1.73;;;;;;;3.80;72.83;95799.78;5036859;28;20433;-71
2023/11/26 01:03:14;;;;;;;5.87;1.87;;;;;;;4.01;71.00;95798.34;5043452;28;20195;-70
2023/11/26 01:05:40;;;;;;;4.07;2.57;;;;;;;3.95;71.30;95809.78;5040783;28;20269;-70
2023/11/26 01:08:06;;;;;;;5.73;4.77;;;;;;;3.91;70.83;95807.31;5036033;28;21010;-70
2023/11/26 01:10:31;;;;;;;3.17;2.47;;;;;;;3.92;70.62;95804.69;5045609;28;20198;-70
2023/11/26 01:12:57;;;;;;;4.80;2.70;;;;;;;3.71;71.19;95819.06;5033194;28;20961;-69
2023/11/26 01:15:23;;;;;;;3.30;2.47;;;;;;;3.82;69.84;95823.97;5031400;28;20218;-71
2023/11/26 01:17:48;;;;;;;2.77;2.40;;;;;;;3.78;70.06;95823.22;5044335;28;20924;-71
2023/11/26 01:20:14;;;;;;;7.57;2.70;;;;;;;3.88;69.93;95833.34;5047891;28;20440;-72
2023/11/26 01:22:40;;;;;;;2.53;2.33;;;;;;;3.83;69.53;95833.47;5036332;28;20187;-72
2023/11/26 01:25:06;;;;;;;3.33;2.50;;;;;;;3.78;70.14;95846.56;5037402;28;20558;-69
2023/11/26 01:27:34;;;;;;;3.00;2.67;;;;;;;3.84;70.78;95842.09;5037568;28;20492;-72
2023/11/26 01:30:00;;;;;;;2.43;2.23;;;;;;;3.76;70.51;95847.50;5036370;28;20519;-72
2023/11/26 01:32:26;;;;;;;4.03;2.97;;;;;;;3.81;70.54;95846.47;5031941;28;20503;-71
2023/11/26 01:34:52;;;;;;;3.10;2.80;;;;;;;3.68;70.77;95852.88;5033784;28;20211;-72
2023/11/26 01:37:18;;;;;;;3.03;2.70;;;;;;;3.72;70.54;95859.69;5042062;28;20350;-72
2023/11/26 01:39:43;;;;;;;5.73;3.10;;;;;;;3.70;70.99;95851.09;5044499;28;20178;-72
2023/11/26 01:42:09;;;;;;;3.17;2.87;;;;;;;3.74;70.06;95851.88;5036729;28;20183;-71
2023/11/26 01:44:35;;;;;;;3.17;2.87;;;;;;;3.75;69.89;95858.75;5030951;28;20222;-71
2023/11/26 01:47:08;;;;;;;3.03;2.27;;;;;;;3.72;70.21;95859.69;5037293;28;20498;-71
2023/11/26 01:49:35;;;;;;;2.90;2.60;;;;;;;3.70;70.65;95865.81;5041655;28;20592;-71
2023/11/26 01:52:03;;;;;;;3.33;2.70;;;;;;;3.73;69.74;95861.41;5042365;28;21303;-72
2023/11/26 01:54:30;;;;;;;2.47;2.10;;;;;;;3.69;69.26;95864.13;5028355;28;20482;-70
2023/11/26 01:56:56;;;;;;;4.70;2.50;;;;;;;3.53;70.14;95859.31;5032692;28;20497;-72
2023/11/26 01:59:22;;;;;;;8.17;2.27;;;;;;;3.54;70.15;95865.34;5038269;28;20444;-69
2023/11/26 02:01:47;;;;;;;4.33;2.70;;;;;;;3.51;69.73;95868.03;5056628;28;20438;-71
2023/11/26 02:04:13;;;;;;;4.23;2.40;;;;;;;3.62;69.14;95872.97;5058577;28;20203;-69
2023/11/26 02:06:39;;;;;;;5.60;3.00;;;;;;;3.52;69.13;95873.19;5053727;28;20190;-72
2023/11/26 02:09:06;;;;;;;6.40;3.50;;;;;;;3.47;68.47;95874.16;5051640;28;20179;-71
2023/11/26 02:11:32;;;;;;;3.10;2.80;;;;;;;3.59;67.87;95879.91;5036400;28;20437;-71
2023/11/26 02:13:57;;;;;;;3.20;2.30;;;;;;;3.46;68.04;95878.50;5040532;28;20450;-71
2023/11/26 02:16:24;;;;;;;3.10;2.50;;;;;;;3.48;68.45;95881.91;5038020;28;20203;-71
2023/11/26 02:18:49;;;;;;;4.50;2.67;;;;;;;3.57;68.57;95888.63;5029108;28;20179;-72
2023/11/26 02:21:16;;;;;;;4.67;2.83;;;;;;;3.53;67.57;95880.06;5033479;28;20511;-71
2023/11/26 02:23:44;;;;;;;3.83;2.43;;;;;;;3.53;67.55;95881.81;5039716;28;20206;-71
2023/11/26 02:26:09;;;;;;;6.33;2.77;;;;;;;3.27;68.17;95882.44;5038822;28;20432;-70
2023/11/26 02:28:36;;;;;;;3.60;2.57;;;;;;;3.36;68.27;95892.59;5030935;28;20513;-71
2023/11/26 02:31:01;;;;;;;3.27;2.47;;;;;;;3.40;67.95;95891.59;5034533;28;20182;-70
2023/11/26 02:33:27;;;;;;;6.83;2.40;;;;;;;3.50;67.88;95889.69;5037436;28;20468;-71
2023/11/26 02:35:52;;;;;;;2.57;2.17;;;;;;;3.41;67.76;95903.72;5035814;28;20194;-73
2023/11/26 02:38:18;;;;;;;5.03;2.77;;;;;;;3.59;67.36;95900.69;5038876;28;20189;-71
2023/11/26 02:40:43;;;;;;;4.10;2.80;;;;;;;3.50;67.13;95894.88;5043388;28;20258;-71
2023/11/26 02:43:08;;;;;;;3.67;2.90;;;;;;;3.42;67.75;95897.63;5028114;28;20244;-71
2023/11/26 02:45:34;;;;;;;3.10;2.80;;;;;;;3.48;66.92;95901.81;5029021;28;20580;-72
2023/11/26 02:47:59;;;;;;;5.00;2.60;;;;;;;3.36;67.49;95897.78;5038939;28;20176;-71
2023/11/26 02:50:25;;;;;;;6.20;2.70;;;;;;;3.50;67.19;95903.50;5040424;28;20183;-71
2023/11/26 02:52:50;;;;;;;8.50;3.00;;;;;;;3.37;68.29;95904.66;5039073;28;20178;-71
2023/11/26 02:55:18;;;;;;;7.10;2.60;;;;;;;3.39;68.51;95905.47;5042659;28;20230;-72
2023/11/26 02:57:44;;;;;;;5.40;1.93;;;;;;;3.53;67.79;95913.78;5033277;28;20179;-72
2023/11/26 03:00:15;;;;;;;5.50;2.50;;;;;;;3.57;67.81;95930.16;5034081;28;21294;-71
2023/11/26 03:02:42;;;;;;;2.87;2.20;;;;;;;3.61;66.93;95931.75;5044369;28;20466;-70
2023/11/26 03:05:17;;;;;;;4.93;2.80;;;;;;;3.55;67.52;95927.56;5041284;28;20425;-71
2023/11/26 03:07:42;;;;;;;4.00;2.63;;;;;;;3.34;68.72;95917.72;5041284;28;21257;-72
2023/11/26 03:13:12;;;;;;;3.77;2.40;;;;;;;3.45;67.81;95920.91;5041058;28;20202;-72
2023/11/26 03:15:41;;;;;;;2.63;2.20;;;;;;;3.49;68.17;95922.53;5036262;28;20453;-71
2023/11/26 03:18:08;;;;;;;2.80;2.20;;;;;;;3.46;68.09;95926.94;5041751;28;20445;-72
2023/11/26 03:20:36;;;;;;;3.47;2.10;;;;;;;3.43;68.90;95925.28;5036642;28;20469;-72
2023/11/26 03:23:03;;;;;;;6.97;2.60;;;;;;;3.47;68.23;95926.88;5033116;28;20480;-72
2023/11/26 03:25:30;;;;;;;3.80;2.40;;;;;;;3.43;68.85;95937.41;5042854;28;20876;-72
2023/11/26 03:27:55;;;;;;;3.20;2.60;;;;;;;3.57;67.89;95935.34;5034167;28;20823;-71
2023/11/26 03:30:20;;;;;;;3.00;2.17;;;;;;;3.35;68.74;95945.34;5034353;28;20498;-72
2023/11/26 03:32:46;;;;;;;3.93;3.43;;;;;;;3.29;68.79;95940.31;5037789;28;20206;-70
2023/11/26 03:35:12;;;;;;;9.70;4.30;;;;;;;3.33;69.31;95945.41;5028221;28;20678;-71
2023/11/26 03:37:38;;;;;;;3.77;3.23;;;;;;;3.37;68.23;95957.38;5032170;28;20194;-73
2023/11/26 03:40:07;;;;;;;6.50;2.50;;;;;;;3.29;68.20;95956.72;5037701;28;21095;-72
2023/11/26 03:42:34;;;;;;;2.57;2.27;;;;;;;3.32;67.74;95948.00;5043601;28;20600;-71
2023/11/26 03:45:00;;;;;;;3.90;2.67;;;;;;;3.34;68.18;95959.22;5028525;28;20742;-69
2023/11/26 03:47:26;;;;;;;3.80;2.27;;;;;;;3.41;67.73;95955.59;5029546;28;20835;-71
2023/11/26 03:49:52;;;;;;;3.10;2.10;;;;;;;3.33;67.67;95960.06;5033266;28;20592;-71
2023/11/26 03:52:18;;;;;;;3.17;2.10;;;;;;;3.35;66.93;95959.19;5039341;28;20270;-71
2023/11/26 03:54:43;;;;;;;4.27;2.20;;;;;;;3.39;66.69;95963.38;5042661;28;20623;-72
2023/11/26 03:57:09;;;;;;;5.43;2.30;;;;;;;3.30;67.20;95970.53;5033721;28;20199;-72
2023/11/26 03:59:36;;;;;;;1.90;1.77;;;;;;;3.24;66.74;95966.34;5039319;28;20622;-71
2023/11/26 04:02:02;;;;;;;3.33;2.77;;;;;;;3.24;66.37;95971.53;5040885;28;20444;-71
2023/11/26 04:04:28;;;;;;;3.43;2.60;;;;;;;3.26;66.09;95977.53;5040868;28;20203;-71
2023/11/26 04:06:54;;;;;;;3.37;2.17;;;;;;;3.28;65.87;95978.31;5042748;28;20433;-72
2023/11/26 04:09:19;;;;;;;2.93;2.63;;;;;;;3.36;66.02;95991.16;5041440;28;20847;-72
2023/11/26 04:11:45;;;;;;;4.30;2.73;;;;;;;3.41;65.58;95988.47;5030497;28;20198;-71
2023/11/26 04:14:11;;;;;;;3.43;2.20;;;;;;;3.34;65.76;95988.59;5034519;28;20217;-71
2023/11/26 04:16:36;;;;;;;2.83;2.13;;;;;;;3.14;66.34;96002.00;5039163;28;20770;-71
2023/11/26 04:19:01;;;;;;;3.00;2.33;;;;;;;2.97;67.64;96004.06;5042996;28;20186;-71
2023/11/26 04:21:27;;;;;;;3.00;2.30;;;;;;;3.00;68.41;96018.69;5039220;28;20229;-72
2023/11/26 04:23:52;;;;;;;6.17;3.27;;;;;;;2.77;68.48;96016.59;5034145;28;20200;-71
2023/11/26 04:26:18;;;;;;;4.10;2.60;;;;;;;2.88;68.60;96017.19;5047135;28;20183;-72
2023/11/26 04:28:43;;;;;;;4.83;3.10;;;;;;;2.84;68.64;96019.00;5045219;28;20180;-70
2023/11/26 04:31:08;;;;;;;2.50;2.30;;;;;;;2.73;69.56;96016.63;5051742;28;20214;-71
2023/11/26 04:33:34;;;;;;;12.63;3.40;;;;;;;2.72;69.44;96020.09;5044649;28;20203;-71
2023/11/26 04:35:59;;;;;;;3.53;2.50;;;;;;;2.71;69.30;96025.31;5052380;28;20206;-70
2023/11/26 04:38:26;;;;;;;3.30;2.90;;;;;;;2.65;69.35;96028.88;5054564;28;20319;-71
2023/11/26 04:40:51;;;;;;;4.83;3.30;;;;;;;2.55;70.29;96022.16;5051324;28;20187;-71
2023/11/26 04:43:17;;;;;;;3.77;2.97;;;;;;;2.59;70.23;96026.41;5046246;28;20850;-72
2023/11/26 04:45:42;;;;;;;3.37;2.77;;;;;;;2.58;69.81;96032.47;5051450;28;20182;-72
2023/11/26 04:48:08;;;;;;;4.83;2.80;;;;;;;2.62;70.29;96028.94;5045508;28;20180;-70
2023/11/26 04:50:34;;;;;;;3.53;2.90;;;;;;;2.57;70.28;96035.06;5036538;28;20178;-72
2023/11/26 04:52:59;;;;;;;3.27;2.60;;;;;;;2.58;70.58;96036.81;5038696;28;20218;-71
2023/11/26 04:55:25;;;;;;;3.40;2.73;;;;;;;2.67;69.91;96032.31;5037380;28;20777;-72
2023/11/26 04:57:50;;;;;;;5.80;2.70;;;;;;;2.77;70.07;96037.31;5038797;28;20183;-70
2023/11/26 05:00:16;;;;;;;3.20;2.90;;;;;;;2.70;70.25;96047.78;5031270;28;20665;-72
2023/11/26 05:02:42;;;;;;;4.83;2.90;;;;;;;2.71;70.05;96044.28;5034851;28;20677;-72
2023/11/26 05:05:10;;;;;;;2.63;2.33;;;;;;;2.50;70.64;96048.16;5042161;28;20909;-72
2023/11/26 05:07:39;;;;;;;3.93;2.67;;;;;;;2.50;70.73;96053.34;5043394;28;20451;-72
2023/11/26 05:10:09;;;;;;;6.60;3.87;;;;;;;2.65;70.64;96053.94;5044163;28;20437;-72
2023/11/26 05:12:35;;;;;;;4.57;2.90;;;;;;;2.68;70.21;96059.06;5038545;28;20481;-71
2023/11/26 05:15:01;;;;;;;6.73;3.53;;;;;;;2.80;69.95;96061.41;5033270;28;20532;-72
2023/11/26 05:17:26;;;;;;;5.60;3.20;;;;;;;2.80;69.97;96058.81;5045179;28;20444;-72
2023/11/26 05:19:52;;;;;;;5.10;3.13;;;;;;;2.80;70.03;96053.63;5047074;28;20832;-70
2023/11/26 05:22:17;;;;;;;4.40;2.70;;;;;;;2.78;69.74;96055.41;5034648;28;20272;-72
2023/11/26 05:24:43;;;;;;;5.80;3.03;;;;;;;2.87;69.78;96064.75;5039034;28;20199;-74
2023/11/26 05:27:09;;;;;;;4.83;3.20;;;;;;;2.85;69.50;96066.50;5039840;28;20175;-71
2023/11/26 05:29:35;;;;;;;2.40;2.20;;;;;;;2.85;69.12;96061.31;5036262;28;20183;-71
2023/11/26 05:32:00;;;;;;;3.50;3.00;;;;;;;2.82;69.63;96075.19;5034887;28;20183;-71
2023/11/26 05:34:26;;;;;;;3.93;2.63;;;;;;;2.89;69.67;96073.34;5039586;28;20438;-71
2023/11/26 05:36:51;;;;;;;6.93;3.33;;;;;;;2.68;69.99;96079.78;5040139;28;20804;-71
2023/11/26 05:39:17;;;;;;;4.77;3.20;;;;;;;2.71;70.29;96085.75;5035924;28;20187;-73
2023/11/26 05:41:42;;;;;;;7.63;4.27;;;;;;;2.79;70.15;96076.97;5039417;28;20239;-70
2023/11/26 05:44:09;;;;;;;4.80;3.40;;;;;;;2.77;70.21;96092.56;5043211;28;20195;-72
2023/11/26 05:46:35;;;;;;;3.30;3.00;;;;;;;2.70;70.84;96090.97;5029856;28;20577;-70
2023/11/26 05:49:00;;;;;;;4.60;3.10;;;;;;;2.70;70.76;96097.00;5034147;28;20442;-72
2023/11/26 05:51:27;;;;;;;6.90;3.07;;;;;;;2.69;70.68;96107.38;5037010;28;20187;-70
2023/11/26 05:53:52;;;;;;;2.63;2.43;;;;;;;2.63;70.71;96103.19;5043524;28;20290;-72
2023/11/26 05:56:18;;;;;;;8.50;3.40;;;;;;;2.74;70.28;96106.44;5029029;28;20548;-72
2023/11/26 05:58:43;;;;;;;3.43;2.67;;;;;;;2.66;70.32;96105.72;5033346;28;20191;-72
2023/11/26 06:01:09;;;;;;;10.03;4.23;;;;;;;2.69;70.27;96109.97;5044081;28;20601;-73
2023/11/26 06:03:36;;;;;;;6.77;3.10;;;;;;;2.65;70.43;96104.00;5038167;28;20202;-72
2023/11/26 06:06:02;;;;;;;18.23;3.53;;;;;;;2.68;70.31;96108.28;5043693;28;20239;-71
2023/11/26 06:08:27;;;;;;;7.90;5.53;;;;;;;2.64;70.02;96112.66;5041539;28;20988;-71
2023/11/26 06:10:52;;;;;;;6.13;2.50;;;;;;;2.66;69.92;96116.06;5031198;28;20199;-72
2023/11/26 06:13:18;;;;;;;3.73;2.80;;;;;;;2.65;70.32;96116.13;5033568;28;20385;-73
2023/11/26 06:15:43;;;;;;;3.50;2.70;;;;;;;2.65;70.13;96124.72;5038366;28;20214;-71
2023/11/26 06:18:09;;;;;;;12.43;3.77;;;;;;;2.71;70.09;96114.25;5045586;28;20180;-72
2023/11/26 06:20:34;;;;;;;12.30;5.07;;;;;;;2.68;69.99;96119.50;5034227;28;20659;-72
2023/11/26 06:22:59;;;;;;;15.53;3.80;;;;;;;2.73;70.30;96125.44;5044351;28;20203;-70
2023/11/26 06:25:25;;;;;;;16.20;5.20;;;;;;;2.74;70.16;96123.69;5031615;28;20178;-71
2023/11/26 06:27:50;;;;;;;8.83;2.97;;;;;;;2.78;69.93;96133.13;5040647;28;21126;-71
2023/11/26 06:30:15;;;;;;;8.43;3.73;;;;;;;2.80;69.58;96131.38;5045153;28;20175;-72
2023/11/26 06:32:42;;;;;;;14.03;3.50;;;;;;;2.78;70.13;96135.72;5042943;28;20196;-72
2023/11/26 06:35:08;;;;;;;6.93;3.00;;;;;;;2.81;69.79;96134.81;5037832;28;20171;-71
2023/11/26 06:37:34;;;;;;;8.53;3.37;;;;;;;2.81;69.92;96127.91;5037562;28;20440;-73
2023/11/26 06:39:59;;;;;;;8.27;2.97;;;;;;;2.81;69.87;96134.81;5035544;28;20435;-71
2023/11/26 06:42:25;;;;;;;11.87;3.90;;;;;;;2.75;70.47;96136.63;5045266;28;20179;-71
2023/11/26 06:44:50;;;;;;;7.67;2.90;;;;;;;2.79;70.02;96134.88;5046033;28;20997;-69
2023/11/26 06:47:15;;;;;;;6.83;3.63;;;;;;;2.70;70.40;96140.19;5045151;28;20186;-71
2023/11/26 06:49:41;;;;;;;5.37;3.17;;;;;;;2.70;70.90;96143.63;5032117;28;20318;-70
2023/11/26 06:52:06;;;;;;;7.53;3.37;;;;;;;2.73;70.65;96143.56;5043200;28;20179;-71
2023/11/26 06:54:33;;;;;;;10.13;3.07;;;;;;;2.67;70.72;96161.84;5042708;28;20195;-71
2023/11/26 06:56:58;;;;;;;18.43;3.83;;;;;;;2.67;70.86;96151.47;5035082;28;20697;-70
2023/11/26 06:59:24;;;;;;;14.17;4.27;;;;;;;2.67;70.66;96155.78;5033163;28;20533;-71
2023/11/26 07:01:49;;;;;;;9.20;3.60;;;;;;;2.70;70.96;96166.97;5030433;28;20203;-71
2023/11/26 07:04:15;;;;;;;17.13;4.33;;;;;;;2.74;70.53;96166.03;5041675;28;20256;-70
2023/11/26 07:06:42;;;;;;;9.77;3.43;;;;;;;3.05;69.46;96157.72;5043488;28;20171;-71
2023/11/26 07:09:09;;;;;;;9.87;3.37;;;;;;;3.24;68.82;96171.19;5039173;28;20448;-72
2023/11/26 07:11:35;;;;;;;22.13;4.30;;;;;;;3.30;68.35;96167.63;5041413;28;20532;-72
2023/11/26 07:14:02;;;;;;;13.47;3.73;;;;;;;3.24;68.82;96170.34;5036068;28;20464;-73
2023/11/26 07:16:27;;;;;;;11.03;3.87;;;;;;;3.41;67.90;96168.28;5040948;28;20546;-71
2023/11/26 07:18:53;;;;;;;23.10;3.73;;;;;;;4.31;65.52;96155.09;5040303;28;20445;-73
2023/11/26 07:21:18;;;;;;;16.70;3.47;;;;;;;5.63;60.80;96158.66;5040761;28;20943;-71
2023/11/26 07:23:44;;;;;;;6.83;4.23;;;;;;;6.60;57.55;96159.22;5030021;28;20230;-72
2023/11/26 07:26:15;;;;;;;4.70;4.03;;;;;;;7.22;55.13;96160.66;5038559;28;20270;-71
2023/11/26 07:28:40;;;;;;;5.23;3.47;;;;;;;7.99;53.34;96166.59;5043991;28;20222;-73
2023/11/26 07:31:13;;;;;;;5.10;3.20;;;;;;;8.43;51.65;96158.84;5031743;28;20967;-73
2023/11/26 07:33:40;;;;;;;13.57;4.00;;;;;;;8.80;49.62;96146.88;5047966;28;20206;-72
2023/11/26 07:36:22;;;;;;;8.40;2.73;;;;;;;9.06;49.18;96158.06;5035133;28;20465;-72
2023/11/26 07:38:48;;;;;;;6.63;2.73;;;;;;;8.74;49.16;96141.94;5047120;28;20444;-72
2023/11/26 07:41:15;;;;;;;3.63;2.47;;;;;;;9.24;48.39;96148.59;5062517;28;20458;-70
2023/11/26 07:43:41;;;;;;;14.93;4.20;;;;;;;9.85;47.04;96152.88;5049666;28;20473;-71
2023/11/26 07:46:08;;;;;;;13.03;3.07;;;;;;;10.36;45.60;96154.91;5051592;28;20429;-72
2023/11/26 07:48:34;;;;;;;9.30;3.23;;;;;;;10.49;45.72;96155.22;5042615;28;20442;-71
2023/11/26 07:51:02;;;;;;;11.80;3.10;;;;;;;10.66;45.20;96154.41;5032314;28;20438;-72
2023/11/26 07:53:28;;;;;;;17.23;3.40;;;;;;;8.89;48.98;96162.22;5041200;28;20453;-72
2023/11/26 07:55:56;;;;;;;6.90;2.70;;;;;;;9.22;48.68;96160.88;5044363;28;20472;-71
2023/11/26 07:58:24;;;;;;;12.87;3.23;;;;;;;9.84;46.80;96157.28;5039544;28;20200;-70
2023/11/26 08:00:49;;;;;;;15.83;2.90;;;;;;;9.65;46.99;96154.63;5033088;28;20575;-71
2023/11/26 08:03:16;;;;;;;9.23;2.13;;;;;;;10.44;46.22;96158.94;5035507;28;20520;-72
2023/11/26 08:05:43;;;;;;;4.23;2.30;;;;;;;11.10;44.64;96148.75;5043998;28;20191;-70
2023/11/26 08:08:08;;;;;;;5.10;2.40;;;;;;;11.69;42.35;96145.75;5042209;28;20517;-70
2023/11/26 08:10:34;;;;;;;5.17;4.30;;;;;;;12.46;40.93;96142.50;5039430;28;20970;-72
2023/11/26 08:12:59;;;;;;;5.83;2.33;;;;;;;12.65;40.08;96144.97;5032436;28;20618;-71
2023/11/26 08:15:27;;;;;;;3.20;2.47;;;;;;;12.42;41.26;96144.44;5039664;28;20214;-72
2023/11/26 08:17:55;;;;;;;5.50;2.30;;;;;;;12.96;39.73;96141.41;5046777;28;20190;-71
2023/11/26 08:20:23;;;;;;;7.50;3.00;;;;;;;13.00;40.09;96129.78;5043045;28;20441;-72
2023/11/26 08:22:51;;;;;;;7.77;3.53;;;;;;;12.27;41.06;96135.63;5045671;28;20552;-71
2023/11/26 08:25:23;;;;;;;21.13;3.13;;;;;;;10.94;43.33;96148.66;5037856;28;20427;-71
2023/11/26 08:27:49;;;;;;;9.27;3.43;;;;;;;10.17;46.28;96157.50;5043964;28;20436;-71
2023/11/26 08:33:02;;;;;;;12.67;3.77;;;;;;;10.75;45.21;96153.09;5038470;28;20487;-71
2023/11/26 08:35:29;;;;;;;7.00;2.53;;;;;;;11.81;42.75;96147.72;5037812;28;20551;-72
2023/11/26 08:38:00;;;;;;;21.77;4.37;;;;;;;12.22;41.95;96157.88;5038364;28;20442;-72
2023/11/26 08:40:25;;;;;;;23.80;3.80;;;;;;;12.87;40.28;96149.84;5030515;28;20587;-70
2023/11/26 08:42:54;;;;;;;8.00;3.30;;;;;;;13.66;38.40;96154.91;5040285;28;20620;-71
2023/11/26 08:45:22;;;;;;;6.67;2.80;;;;;;;13.40;38.76;96159.09;5041484;28;20190;-71
2023/11/26 08:47:48;;;;;;;10.40;3.20;;;;;;;13.13;39.29;96166.78;5036258;28;20438;-71
2023/11/26 08:50:13;;;;;;;8.80;2.80;;;;;;;13.41;38.75;96163.44;5056136;28;20807;-71
2023/11/26 08:52:39;;;;;;;4.63;2.60;;;;;;;14.14;37.57;96178.41;5047680;28;20262;-73
2023/11/26 08:55:05;;;;;;;12.50;3.53;;;;;;;14.05;37.33;96173.69;5037949;28;20225;-72
2023/11/26 08:57:33;;;;;;;11.77;2.93;;;;;;;12.50;39.46;96173.00;5049512;28;20278;-73
2023/11/26 08:59:59;;;;;;;17.70;4.20;;;;;;;10.58;44.42;96186.25;5056667;28;20430;-71
2023/11/26 09:02:25;;;;;;;14.97;4.40;;;;;;;9.67;46.76;96193.88;5030026;28;20426;-73
2023/11/26 09:04:51;;;;;;;8.60;3.17;;;;;;;8.94;49.03;96203.91;5027076;28;20203;-73
2023/11/26 09:07:16;;;;;;;8.80;4.10;;;;;;;8.34;50.92;96211.47;5030835;28;21197;-71
2023/11/26 09:09:42;;;;;;;17.07;3.60;;;;;;;8.13;51.80;96207.03;5038158;28;20520;-72
2023/11/26 09:12:08;;;;;;;13.47;4.33;;;;;;;7.82;52.80;96211.63;5039296;28;20274;-73
2023/11/26 09:14:34;;;;;;;13.90;4.20;;;;;;;7.59;53.53;96222.88;5041867;28;20294;-72
2023/11/26 09:16:59;;;;;;;27.90;5.27;;;;;;;7.36;54.60;96228.88;5042217;28;20292;-73
2023/11/26 09:19:25;;;;;;;13.80;4.60;;;;;;;7.32;55.56;96229.91;5041605;28;20927;-72
2023/11/26 09:21:51;;;;;;;12.13;5.00;;;;;;;7.07;55.66;96237.69;5041567;28;20195;-72
2023/11/26 09:24:18;;;;;;;8.90;5.80;;;;;;;6.68;57.65;96243.25;5039343;28;20291;-71
2023/11/26 09:26:44;;;;;;;7.30;4.73;;;;;;;6.39;59.04;96241.56;5040916;28;20448;-72
2023/11/26 09:29:09;;;;;;;13.60;3.90;;;;;;;6.27;59.52;96232.34;5041154;28;20441;-71
2023/11/26 09:31:43;;;;;;;20.00;5.93;;;;;;;6.53;59.61;96235.94;5033007;28;20441;-72
2023/11/26 09:34:10;;;;;;;7.63;3.70;;;;;;;6.67;59.75;96230.28;5023937;28;20248;-72
2023/11/26 09:36:41;;;;;;;15.30;3.20;;;;;;;6.73;58.74;96233.56;5039343;28;20484;-72
2023/11/26 09:39:07;;;;;;;12.50;4.53;;;;;;;6.76;58.88;96232.63;5039661;28;20784;-72
2023/11/26 09:41:33;;;;;;;28.10;5.30;;;;;;;6.54;60.18;96233.28;5044662;28;20433;-73
2023/11/26 09:43:58;;;;;;;15.73;4.30;;;;;;;6.41;60.71;96226.72;5039182;28;20781;-71
2023/11/26 09:46:25;;;;;;;9.30;3.73;;;;;;;6.38;60.76;96226.84;5033594;28;20557;-73
2023/11/26 09:48:51;;;;;;;26.10;4.67;;;;;;;6.27;61.32;96228.91;5039918;28;20194;-72
2023/11/26 09:51:19;;;;;;;7.13;2.80;;;;;;;7.92;83.21;96206.06;5035600;28;20438;-73
2023/11/26 09:53:45;;;;;;;6.20;3.40;;;;;;;8.02;76.14;96212.66;5040429;28;20207;-73
2023/11/26 09:56:11;;;;;;;6.07;2.93;;;;;;;10.54;74.82;96197.81;5033416;28;20462;-72
2023/11/26 09:58:40;;;;;;;16.30;3.50;;;;;;;10.85;54.85;96188.47;5039980;28;20452;-71
2023/11/26 10:01:09;;;;;;;12.10;3.70;;;;;;;9.54;62.83;96191.78;5042381;28;20438;-72
2023/11/26 10:04:05;;;;;;;10.07;3.70;;;;;;;9.69;67.80;96181.56;5043044;28;20461;-74
2023/11/26 10:06:30;;;;;;;15.83;5.53;;;;;;;9.82;59.42;96182.69;5029403;28;20484;-74
2023/11/26 10:08:57;;;;;;;10.23;3.37;;;;;;;8.84;61.32;96184.25;5036740;28;20429;-72
2023/11/26 10:11:25;;;;;;;7.03;3.50;;;;;;;8.73;55.62;96192.53;5036444;28;20687;-69
2023/11/26 10:13:54;;;;;;;5.93;2.90;;;;;;;8.26;56.00;96188.19;5039855;28;20461;-69
2023/11/26 10:16:28;;;;;;;6.17;3.23;;;;;;;8.21;56.53;96184.91;5026688;28;20461;-67
2023/11/26 10:18:54;;;;;;;4.70;2.80;;;;;;;7.66;56.78;96179.13;5027875;28;20437;-70
2023/11/26 10:21:19;;;;;;;5.50;3.10;;;;;;;7.63;57.56;96187.09;5032073;28;20781;-68
2023/11/26 10:23:45;;;;;;;4.40;2.90;;;;;;;7.40;58.23;96182.66;5036833;28;20238;-68
2023/11/26 10:26:28;;;;;;;3.47;2.70;;;;;;;7.28;58.17;96197.00;5031458;28;20253;-68
2023/11/26 10:29:08;;;;;;;4.20;2.50;;;;;;;7.06;58.58;96194.22;5041013;28;20468;-68
2023/11/26 10:31:57;;;;;;;8.50;2.70;;;;;;;7.02;58.34;96191.81;5035619;28;20810;-67
2023/11/26 10:34:22;;;;;;;6.80;2.50;;;;;;;7.36;58.43;96187.13;5040941;28;20465;-67
2023/11/26 10:36:48;;;;;;;2.60;2.30;;;;;;;7.70;57.39;96178.13;5040195;28;21342;-66
2023/11/26 10:39:14;;;;;;;3.10;2.20;;;;;;;8.04;55.69;96175.09;5041591;28;20239;-68
2023/11/26 10:41:40;;;;;;;3.10;2.60;;;;;;;8.25;55.05;96160.38;5045435;28;20225;-69
2023/11/26 10:44:07;;;;;;;2.43;2.23;;;;;;;8.47;55.55;96155.19;5038737;28;20449;-66
2023/11/26 10:46:34;;;;;;;6.90;2.67;;;;;;;8.52;54.88;96149.75;5037447;28;20433;-68
2023/11/26 10:49:08;;;;;;;4.60;2.80;;;;;;;8.47;54.12;96154.34;5037136;28;20506;-66
2023/11/26 10:51:36;;;;;;;3.00;2.70;;;;;;;8.63;52.94;96152.81;5033358;28;20884;-67
2023/11/26 10:54:16;;;;;;;4.87;2.80;;;;;;;8.54;53.80;96149.72;5034393;28;20555;-67
2023/11/26 10:56:47;;;;;;;3.90;2.30;;;;;;;8.86;52.71;96146.66;5030891;28;20472;-67
2023/11/26 10:59:22;;;;;;;4.13;3.40;;;;;;;9.19;52.87;96147.91;5033774;28;20446;-67
2023/11/26 11:01:48;;;;;;;4.23;2.77;;;;;;;8.80;53.94;96146.03;5041546;28;20993;-69
2023/11/26 11:04:15;;;;;;;4.30;2.80;;;;;;;8.40;53.45;96147.63;5041099;28;20453;-68
2023/11/26 11:06:43;;;;;;;4.67;2.30;;;;;;;8.40;53.98;96142.41;5040756;28;20524;-69
2023/11/26 11:09:13;;;;;;;7.07;2.87;;;;;;;8.30;53.19;96152.34;5038908;28;20436;-69
2023/11/26 11:11:58;;;;;;;4.07;3.00;;;;;;;8.31;54.51;96147.97;5040429;28;20951;-68
2023/11/26 11:14:26;;;;;;;4.10;2.70;;;;;;;8.39;55.56;96141.53;5035223;28;20465;-67
2023/11/26 11:16:52;;;;;;;6.80;3.07;;;;;;;8.42;55.01;96140.59;5035629;28;20473;-69
2023/11/26 11:19:52;;;;;;;23.63;4.70;;;;;;;8.62;54.30;96150.25;5034381;28;20522;-66
2023/11/26 11:22:18;;;;;;;30.27;5.70;;;;;;;8.68;54.69;96148.25;5028765;28;20261;-69
2023/11/26 11:24:45;;;;;;;68.07;8.90;;;;;;;8.31;55.23;96133.13;5036230;28;20560;-69
2023/11/26 11:27:11;;;;;;;16.83;4.00;;;;;;;8.24;55.16;96140.38;5029666;28;20452;-67
2023/11/26 11:29:36;;;;;;;22.87;4.40;;;;;;;8.36;54.41;96138.16;5035961;28;20443;-68
2023/11/26 11:32:02;;;;;;;4.97;3.43;;;;;;;8.25;55.08;96138.63;5031582;28;20528;-68
2023/11/26 11:34:29;;;;;;;5.13;3.00;;;;;;;8.21;55.43;96139.63;5039765;28;20209;-67
2023/11/26 11:36:56;;;;;;;9.20;3.47;;;;;;;8.19;55.33;96139.69;5038290;28;20320;-67
2023/11/26 11:39:41;;;;;;;2.90;2.70;;;;;;;8.09;55.10;96138.34;5025857;28;20541;-67
2023/11/26 11:42:09;;;;;;;4.37;2.13;;;;;;;8.10;54.05;96137.41;5033397;28;20425;-68
2023/11/26 11:44:36;;;;;;;2.60;2.40;;;;;;;8.27;54.21;96137.63;5042140;28;20533;-67